Time;durP1;ratioP1;P1;durP2;ratioP2;P2;SDS_P1;SDS_P2;PMS_P1;PMS_P2;Temp;Humidity;BMP_temperature;BMP_pressure;BME280_temperature;BME280_humidity;BME280_pressure;Samples;Min_cycle;Max_cycle;Signal;HPM_P1;HPM_P2
2023/05/24 00:02:07;;;;;;;6.70;4.15;;;18.00;99.90;;;;;;5016431;28;20120;-50
2023/05/24 00:04:33;;;;;;;5.18;3.58;;;17.90;99.90;;;;;;5035238;28;21048;-49
2023/05/24 00:07:02;;;;;;;4.65;3.22;;;17.60;99.90;;;;;;5031702;28;20046;-49
2023/05/24 00:09:29;;;;;;;6.45;3.50;;;17.50;99.90;;;;;;5016196;28;20369;-51
2023/05/24 00:11:55;;;;;;;5.15;3.40;;;17.40;99.90;;;;;;5034773;28;20091;-50
2023/05/24 00:14:21;;;;;;;5.65;3.63;;;17.40;99.90;;;;;;5034807;28;20112;-49
2023/05/24 00:16:46;;;;;;;7.30;3.58;;;17.50;99.90;;;;;;5034223;28;20038;-49
2023/05/24 00:19:17;;;;;;;5.97;4.00;;;17.50;99.90;;;;;;5034882;28;20033;-50
2023/05/24 00:21:46;;;;;;;5.30;3.50;;;17.50;99.90;;;;;;5034417;28;20050;-50
2023/05/24 00:24:12;;;;;;;5.32;3.42;;;17.40;99.90;;;;;;5034709;28;20492;-51
2023/05/24 00:26:38;;;;;;;6.15;3.85;;;17.10;99.90;;;;;;5034424;28;20063;-49
2023/05/24 00:29:04;;;;;;;5.35;3.45;;;17.20;99.90;;;;;;5034630;28;20032;-49
2023/05/24 00:31:30;;;;;;;5.60;3.55;;;17.50;99.90;;;;;;4999379;28;20503;-49
2023/05/24 00:33:56;;;;;;;4.75;3.15;;;17.80;99.90;;;;;;5011146;28;20073;-49
2023/05/24 00:36:22;;;;;;;7.32;4.30;;;17.80;99.90;;;;;;5033954;28;20087;-51
2023/05/24 00:38:47;;;;;;;5.68;3.97;;;18.00;99.90;;;;;;5034288;28;20400;-51
2023/05/24 00:41:14;;;;;;;6.35;3.90;;;18.10;99.90;;;;;;5034990;28;20033;-49
2023/05/24 00:43:42;;;;;;;4.25;3.28;;;18.30;99.90;;;;;;5034491;28;20049;-51
2023/05/24 00:46:21;;;;;;;6.18;3.50;;;18.40;99.90;;;;;;5034087;28;20033;-51
2023/05/24 00:48:48;;;;;;;6.32;3.53;;;18.50;99.90;;;;;;5030138;28;20041;-49
2023/05/24 00:51:14;;;;;;;4.95;3.47;;;18.40;99.90;;;;;;5034673;28;20408;-51
2023/05/24 00:53:41;;;;;;;6.30;3.03;;;18.50;99.90;;;;;;5015873;28;20041;-49
2023/05/24 00:56:08;;;;;;;6.32;3.78;;;18.50;99.90;;;;;;5033850;28;20073;-50
2023/05/24 00:58:34;;;;;;;4.88;2.83;;;18.50;99.90;;;;;;5033941;28;20114;-50
2023/05/24 01:01:01;;;;;;;6.50;3.33;;;18.50;99.90;;;;;;5027006;28;20084;-49
2023/05/24 01:03:28;;;;;;;5.68;3.15;;;18.50;99.90;;;;;;5034263;28;20075;-50
2023/05/24 01:06:02;;;;;;;4.65;3.25;;;18.50;99.90;;;;;;5033698;28;20041;-48
2023/05/24 01:09:08;;;;;;;6.60;3.03;;;18.60;99.90;;;;;;5033808;28;20034;-50
2023/05/24 01:11:57;;;;;;;4.40;2.60;;;18.60;99.90;;;;;;5024321;28;20069;-49
2023/05/24 01:14:29;;;;;;;4.40;3.10;;;18.50;99.90;;;;;;5033814;28;20053;-51
2023/05/24 01:17:19;;;;;;;4.00;3.00;;;18.50;99.90;;;;;;5033998;28;20354;-50
2023/05/24 01:19:55;;;;;;;4.82;3.47;;;18.50;99.90;;;;;;5033659;28;20515;-49
2023/05/24 01:22:51;;;;;;;4.43;2.88;;;18.50;99.90;;;;;;5033708;28;20104;-49
2023/05/24 01:25:26;;;;;;;6.32;3.30;;;18.50;99.90;;;;;;5029053;28;20033;-50
2023/05/24 01:27:52;;;;;;;4.07;3.10;;;18.40;99.90;;;;;;5028568;28;20469;-50
2023/05/24 01:30:19;;;;;;;4.85;3.45;;;18.10;99.90;;;;;;5034255;28;20031;-49
2023/05/24 01:32:45;;;;;;;7.32;3.78;;;18.00;99.90;;;;;;5033327;28;20033;-51
2023/05/24 01:35:11;;;;;;;7.22;4.03;;;17.90;99.90;;;;;;5033405;28;20091;-48
2023/05/24 01:37:36;;;;;;;5.72;2.95;;;17.80;99.90;;;;;;5033200;28;20056;-50
2023/05/24 01:40:03;;;;;;;9.27;5.18;;;18.00;99.90;;;;;;5033711;28;20025;-50
2023/05/24 01:42:40;;;;;;;16.25;9.73;;;18.10;99.90;;;;;;4965458;28;20168;-49
2023/05/24 01:45:28;;;;;;;8.40;5.28;;;18.20;99.90;;;;;;5033153;28;20112;-51
2023/05/24 01:48:01;;;;;;;4.90;4.10;;;18.20;99.90;;;;;;5029116;28;20408;-50
2023/05/24 01:50:31;;;;;;;5.07;3.33;;;18.20;99.90;;;;;;5031645;28;20065;-51
2023/05/24 01:53:03;;;;;;;6.38;3.72;;;18.20;99.90;;;;;;5030791;28;20025;-50
2023/05/24 01:55:31;;;;;;;;;;;18.20;99.90;;;;;;5033113;28;20037;-50
2023/05/24 01:58:01;;;;;;;4.43;2.97;;;18.20;99.90;;;;;;5033691;28;19997;-50
2023/05/24 02:00:28;;;;;;;5.80;4.00;;;18.20;99.90;;;;;;5033000;28;20424;-50
2023/05/24 02:02:55;;;;;;;6.78;5.22;;;18.10;99.90;;;;;;5031088;28;20389;-50
2023/05/24 02:05:21;;;;;;;7.47;5.57;;;18.00;99.90;;;;;;5031003;28;20029;-50
2023/05/24 02:07:46;;;;;;;7.15;4.80;;;17.80;99.90;;;;;;5029843;28;20107;-50
2023/05/24 02:10:12;;;;;;;5.00;3.70;;;17.90;99.90;;;;;;5012736;28;20056;-52
2023/05/24 02:12:38;;;;;;;4.63;3.53;;;17.80;99.90;;;;;;5032663;28;20033;-50
2023/05/24 02:15:05;;;;;;;8.00;4.85;;;17.90;99.90;;;;;;5032948;28;20041;-50
2023/05/24 02:17:31;;;;;;;8.73;6.20;;;18.00;99.90;;;;;;5011283;28;20069;-48
2023/05/24 02:19:58;;;;;;;10.15;6.43;;;17.90;99.90;;;;;;5014142;28;20041;-51
2023/05/24 02:22:25;;;;;;;5.20;3.20;;;17.90;99.90;;;;;;5032573;28;20484;-49
2023/05/24 02:24:52;;;;;;;5.10;3.50;;;;;;;;;;5030937;28;20472;-54
2023/05/24 02:27:17;;;;;;;8.77;3.17;;;17.90;99.90;;;;;;5032503;28;20392;-52
2023/05/24 02:29:43;;;;;;;5.03;3.30;;;17.90;99.90;;;;;;5032185;28;20033;-50
2023/05/24 02:32:09;;;;;;;6.93;3.50;;;17.50;99.90;;;;;;5032558;28;20025;-51
2023/05/24 02:34:34;;;;;;;5.40;3.30;;;17.40;99.90;;;;;;5032377;28;20037;-50
2023/05/24 02:37:01;;;;;;;5.70;3.80;;;17.30;99.90;;;;;;5032559;28;20036;-49
2023/05/24 02:39:27;;;;;;;4.68;3.28;;;17.30;99.90;;;;;;5032216;28;20428;-51
2023/05/24 02:41:52;;;;;;;6.68;3.20;;;17.20;99.90;;;;;;5032788;28;20116;-50
2023/05/24 02:44:18;;;;;;;11.30;3.67;;;17.20;99.90;;;;;;5031359;28;20112;-51
2023/05/24 02:46:44;;;;;;;4.88;3.08;;;17.20;99.90;;;;;;5031798;28;20025;-50
2023/05/24 02:49:10;;;;;;;5.70;3.78;;;17.10;99.90;;;;;;5032011;28;20101;-50
2023/05/24 02:51:38;;;;;;;4.38;2.47;;;17.10;99.90;;;;;;5014325;28;20037;-51
2023/05/24 02:54:04;;;;;;;4.13;3.10;;;16.90;99.90;;;;;;5031849;28;20029;-52
2023/05/24 02:56:30;;;;;;;5.22;3.55;;;17.00;99.90;;;;;;5013640;28;20057;-50
2023/05/24 02:58:55;;;;;;;4.72;3.53;;;16.80;99.90;;;;;;5032187;28;20461;-49
2023/05/24 03:01:22;;;;;;;4.90;3.30;;;16.90;99.90;;;;;;5030431;28;20069;-52
2023/05/24 03:03:47;;;;;;;5.85;3.83;;;17.10;99.90;;;;;;5029457;28;20029;-49
2023/05/24 03:06:14;;;;;;;7.28;3.38;;;17.10;99.90;;;;;;5032464;28;20041;-51
2023/05/24 03:08:40;;;;;;;5.55;3.67;;;17.10;99.90;;;;;;5031947;28;20033;-49
2023/05/24 03:11:06;;;;;;;12.45;4.90;;;17.20;99.90;;;;;;5031573;28;20101;-52
2023/05/24 03:13:32;;;;;;;9.48;3.65;;;17.20;99.90;;;;;;4997098;28;20676;-49
2023/05/24 03:15:58;;;;;;;5.85;4.03;;;17.30;99.90;;;;;;5032492;28;20512;-50
2023/05/24 03:18:23;;;;;;;6.50;3.58;;;17.30;99.90;;;;;;4981912;28;20037;-50
2023/05/24 03:20:50;;;;;;;9.05;3.88;;;17.30;99.90;;;;;;5036073;28;20033;-51
2023/05/24 03:23:16;;;;;;;9.13;3.90;;;17.30;99.90;;;;;;5000770;28;20041;-51
2023/05/24 03:25:41;;;;;;;8.77;4.05;;;17.40;99.90;;;;;;5035114;28;20040;-47
2023/05/24 03:28:07;;;;;;;7.32;3.97;;;17.40;99.90;;;;;;5035446;28;20112;-48
2023/05/24 03:30:33;;;;;;;7.43;3.80;;;17.50;99.90;;;;;;5034153;28;20112;-49
2023/05/24 03:32:59;;;;;;;5.75;4.15;;;17.50;99.90;;;;;;5035112;28;20028;-49
2023/05/24 03:35:25;;;;;;;6.78;3.70;;;17.40;99.90;;;;;;5016532;28;20103;-48
2023/05/24 03:37:52;;;;;;;7.20;3.85;;;17.30;99.90;;;;;;5034909;28;20057;-51
2023/05/24 03:40:18;;;;;;;4.18;3.58;;;17.20;99.90;;;;;;5034715;28;20033;-51
2023/05/24 03:42:43;;;;;;;9.23;3.83;;;17.20;99.90;;;;;;5033689;28;20086;-51
2023/05/24 03:45:09;;;;;;;6.05;3.55;;;17.20;99.90;;;;;;5036071;28;20100;-49
2023/05/24 03:47:35;;;;;;;6.25;3.58;;;17.10;99.90;;;;;;5016644;28;20033;-51
2023/05/24 03:50:01;;;;;;;4.68;3.55;;;17.20;99.90;;;;;;5035383;28;20176;-50
2023/05/24 03:52:27;;;;;;;6.30;3.53;;;17.40;99.90;;;;;;5017565;28;20037;-49
2023/05/24 03:54:52;;;;;;;7.07;3.92;;;17.50;99.90;;;;;;5016515;28;20385;-49
2023/05/24 03:57:18;;;;;;;5.32;3.83;;;17.50;99.90;;;;;;5016603;28;20164;-50
2023/05/24 03:59:44;;;;;;;6.40;3.60;;;17.50;99.90;;;;;;5035261;28;20087;-49
2023/05/24 04:02:10;;;;;;;5.13;3.20;;;17.50;99.90;;;;;;5033078;28;20125;-48
2023/05/24 04:04:36;;;;;;;5.88;3.90;;;17.40;99.90;;;;;;5017342;28;20037;-50
2023/05/24 04:07:02;;;;;;;6.53;4.20;;;17.40;99.90;;;;;;5016625;28;20044;-50
2023/05/24 04:09:27;;;;;;;8.30;4.05;;;17.50;99.90;;;;;;5034690;28;20384;-50
2023/05/24 04:11:53;;;;;;;5.38;3.72;;;17.60;99.90;;;;;;5016105;28;20037;-50
2023/05/24 04:14:19;;;;;;;4.20;3.60;;;17.50;99.90;;;;;;5032260;28;20041;-51
2023/05/24 04:16:45;;;;;;;7.53;3.90;;;17.40;99.90;;;;;;5028403;28;20034;-49
2023/05/24 04:19:11;;;;;;;4.70;3.53;;;17.40;99.90;;;;;;5033883;28;20064;-48
2023/05/24 04:21:37;;;;;;;5.03;3.97;;;17.50;99.90;;;;;;5035689;28;20076;-48
2023/05/24 04:24:04;;;;;;;4.82;3.30;;;17.60;99.90;;;;;;5034649;28;20053;-49
2023/05/24 04:26:32;;;;;;;5.10;4.07;;;17.70;99.90;;;;;;5014785;28;20047;-49
2023/05/24 04:28:58;;;;;;;8.90;4.25;;;17.80;99.90;;;;;;5034110;28;20030;-49
2023/05/24 04:31:25;;;;;;;5.75;3.83;;;17.90;99.90;;;;;;5034338;28;20029;-49
2023/05/24 04:33:51;;;;;;;6.35;4.00;;;18.00;99.90;;;;;;5035441;28;20369;-49
2023/05/24 04:36:17;;;;;;;6.50;4.95;;;17.90;99.90;;;;;;5034107;28;20093;-48
2023/05/24 04:38:44;;;;;;;6.32;3.45;;;18.00;99.90;;;;;;5015796;28;20053;-49
2023/05/24 04:41:11;;;;;;;6.80;3.78;;;18.00;99.90;;;;;;5016915;28;20037;-50
2023/05/24 04:43:37;;;;;;;5.45;4.20;;;18.10;99.90;;;;;;5016154;28;20050;-49
2023/05/24 04:46:03;;;;;;;7.88;4.60;;;18.20;99.90;;;;;;5034056;28;20350;-50
2023/05/24 04:48:28;;;;;;;5.78;4.05;;;18.20;99.90;;;;;;5032211;28;20033;-50
2023/05/24 04:50:55;;;;;;;5.60;4.00;;;18.30;99.90;;;;;;5033077;28;20025;-51
2023/05/24 04:53:21;;;;;;;5.20;3.95;;;18.40;99.90;;;;;;5034215;28;20032;-53
2023/05/24 04:55:48;;;;;;;5.65;4.70;;;18.40;99.90;;;;;;5032347;28;20041;-49
2023/05/24 04:58:14;;;;;;;5.18;3.88;;;18.50;99.90;;;;;;5034298;28;20028;-50
2023/05/24 05:00:41;;;;;;;6.22;4.20;;;18.60;99.90;;;;;;5033692;28;20037;-50
2023/05/24 05:03:07;;;;;;;9.07;4.68;;;18.60;99.90;;;;;;5034810;28;20179;-49
2023/05/24 05:05:33;;;;;;;7.22;4.95;;;18.70;99.90;;;;;;5033556;28;20041;-49
2023/05/24 05:07:59;;;;;;;6.72;5.32;;;18.70;99.90;;;;;;5033909;28;20503;-50
2023/05/24 05:10:25;;;;;;;5.40;4.07;;;18.80;99.90;;;;;;5033371;28;20038;-50
2023/05/24 05:12:51;;;;;;;8.07;4.50;;;18.90;99.90;;;;;;5033891;28;20029;-50
2023/05/24 05:15:18;;;;;;;5.05;4.18;;;18.90;99.90;;;;;;5033234;28;20099;-50
2023/05/24 05:17:44;;;;;;;6.70;4.47;;;19.00;99.90;;;;;;5033974;28;20029;-52
2023/05/24 05:20:10;;;;;;;7.65;4.53;;;19.10;99.90;;;;;;5013442;28;20038;-49
2023/05/24 05:22:36;;;;;;;7.95;4.63;;;19.20;99.90;;;;;;5010476;28;20099;-48
2023/05/24 05:25:01;;;;;;;8.05;4.47;;;19.30;99.90;;;;;;5008677;28;20041;-48
2023/05/24 05:27:28;;;;;;;5.40;4.38;;;19.30;99.90;;;;;;5032421;28;20084;-48
2023/05/24 05:29:54;;;;;;;7.75;4.40;;;19.10;99.90;;;;;;5033608;28;20456;-48
2023/05/24 05:32:20;;;;;;;5.28;3.78;;;19.10;99.90;;;;;;5026953;28;20049;-48
2023/05/24 05:34:46;;;;;;;5.35;3.97;;;19.10;99.90;;;;;;5033389;28;20033;-48
2023/05/24 05:37:11;;;;;;;5.80;4.50;;;19.20;99.90;;;;;;5034052;28;20025;-49
2023/05/24 05:39:37;;;;;;;5.03;4.18;;;19.30;99.90;;;;;;5014276;28;20049;-49
2023/05/24 05:42:03;;;;;;;6.45;3.35;;;19.50;99.90;;;;;;5032225;28;20029;-50
2023/05/24 05:44:28;;;;;;;4.40;3.65;;;19.50;99.90;;;;;;4949589;28;20095;-49
2023/05/24 05:46:54;;;;;;;8.80;4.43;;;19.60;99.90;;;;;;5031630;28;20045;-50
2023/05/24 05:49:20;;;;;;;6.43;4.07;;;19.50;99.90;;;;;;4976883;28;20108;-49
2023/05/24 05:51:46;;;;;;;5.43;3.72;;;19.50;99.90;;;;;;5031315;28;20033;-48
2023/05/24 05:54:17;;;;;;;4.25;3.03;;;19.60;99.90;;;;;;5032600;28;20040;-50
2023/05/24 05:56:45;;;;;;;4.87;3.33;;;19.60;99.90;;;;;;5023743;28;20138;-49
2023/05/24 05:59:11;;;;;;;11.27;4.20;;;19.30;99.90;;;;;;5032908;28;20401;-50
2023/05/24 06:01:38;;;;;;;5.15;3.65;;;19.30;99.90;;;;;;4997764;28;20492;-50
2023/05/24 06:04:04;;;;;;;5.30;3.70;;;19.50;99.90;;;;;;5033320;28;20099;-49
2023/05/24 06:06:30;;;;;;;8.52;3.53;;;19.60;99.90;;;;;;5032912;28;20549;-48
2023/05/24 06:08:56;;;;;;;5.55;4.03;;;19.70;99.90;;;;;;5014230;28;20168;-49
2023/05/24 06:11:22;;;;;;;8.88;4.32;;;19.80;99.90;;;;;;5014023;28;20132;-50
2023/05/24 06:13:48;;;;;;;3.58;2.97;;;20.00;99.90;;;;;;5027912;28;20051;-49
2023/05/24 06:16:14;;;;;;;6.30;4.03;;;19.90;99.90;;;;;;5030636;28;20048;-49
2023/05/24 06:18:41;;;;;;;8.57;4.90;;;19.90;99.90;;;;;;5014319;28;20041;-50
2023/05/24 06:21:09;;;;;;;12.68;4.88;;;20.10;99.90;;;;;;5026277;28;20034;-49
2023/05/24 06:23:36;;;;;;;4.72;3.67;;;20.10;99.90;;;;;;5031942;28;20124;-49
2023/05/24 06:26:02;;;;;;;6.30;4.13;;;20.30;99.90;;;;;;5013356;28;20105;-50
2023/05/24 06:28:28;;;;;;;6.68;4.32;;;20.40;99.90;;;;;;5032857;28;20040;-49
2023/05/24 06:30:54;;;;;;;7.07;4.25;;;20.40;99.90;;;;;;5032223;28;20029;-50
2023/05/24 06:33:19;;;;;;;5.90;4.20;;;20.50;99.90;;;;;;4991424;28;20131;-50
2023/05/24 06:35:45;;;;;;;8.45;4.72;;;20.70;99.90;;;;;;5031598;28;20465;-51
2023/05/24 06:38:11;;;;;;;5.35;4.22;;;20.80;99.90;;;;;;5029223;28;20052;-50
2023/05/24 06:40:37;;;;;;;8.40;4.35;;;20.90;99.90;;;;;;5031231;28;20113;-50
2023/05/24 06:43:03;;;;;;;6.32;4.15;;;20.90;99.90;;;;;;5032341;28;20061;-50
2023/05/24 06:45:29;;;;;;;5.78;3.85;;;21.00;99.90;;;;;;5030904;28;20485;-49
2023/05/24 06:47:55;;;;;;;5.28;3.95;;;20.80;99.90;;;;;;5032282;28;20121;-50
2023/05/24 06:50:21;;;;;;;6.20;4.45;;;21.00;99.90;;;;;;5030450;28;20385;-50
2023/05/24 06:52:47;;;;;;;6.20;2.78;;;21.00;99.90;;;;;;5031013;28;20112;-50
2023/05/24 06:55:13;;;;;;;6.03;4.00;;;20.90;99.90;;;;;;5031217;28;20063;-50
2023/05/24 06:57:39;;;;;;;5.53;3.75;;;21.10;99.90;;;;;;5013017;28;20045;-51
2023/05/24 07:00:11;;;;;;;6.43;4.28;;;21.30;99.90;;;;;;5031978;28;20475;-50
2023/05/24 07:02:38;;;;;;;4.45;3.33;;;21.40;99.90;;;;;;5014203;28;20100;-50
2023/05/24 07:05:05;;;;;;;6.15;3.50;;;21.40;99.90;;;;;;5031441;28;20488;-51
2023/05/24 07:07:31;;;;;;;7.55;4.35;;;21.50;99.90;;;;;;4973509;28;20381;-50
2023/05/24 07:09:57;;;;;;;9.65;4.85;;;21.60;99.90;;;;;;5006292;28;20056;-50
2023/05/24 07:12:22;;;;;;;7.10;4.93;;;21.90;99.90;;;;;;5013274;28;20041;-50
2023/05/24 07:14:48;;;;;;;8.38;4.40;;;22.00;99.90;;;;;;5031332;28;20029;-50
2023/05/24 07:17:14;;;;;;;7.60;3.70;;;22.10;99.90;;;;;;5010443;28;20116;-50
2023/05/24 07:19:40;;;;;;;7.35;4.63;;;22.30;99.90;;;;;;5031292;28;20439;-50
2023/05/24 07:22:07;;;;;;;7.70;5.10;;;;;;;;;;5029772;28;20087;-50
2023/05/24 07:24:32;;;;;;;6.72;4.30;;;22.80;99.90;;;;;;5032358;28;20116;-50
2023/05/24 07:26:58;;;;;;;6.30;4.82;;;;;;;;;;5013134;28;20120;-50
2023/05/24 07:29:25;;;;;;;7.78;4.10;;;;;;;;;;5011838;28;20096;-50
2023/05/24 07:31:51;;;;;;;5.85;4.15;;;23.20;99.90;;;;;;5031125;28;20104;-50
2023/05/24 07:34:20;;;;;;;6.97;5.18;;;23.10;99.90;;;;;;4964363;28;20034;-50
2023/05/24 07:36:47;;;;;;;4.88;3.58;;;23.10;99.90;;;;;;5031775;28;20056;-50
2023/05/24 07:39:14;;;;;;;5.65;3.83;;;22.90;99.90;;;;;;5012746;28;20065;-50
2023/05/24 07:41:40;;;;;;;7.05;4.13;;;22.70;99.90;;;;;;5025171;28;20068;-50
2023/05/24 07:44:06;;;;;;;5.65;4.40;;;23.00;99.90;;;;;;5012556;28;20401;-51
2023/05/24 07:46:32;;;;;;;5.10;3.83;;;;;;;;;;5031124;28;20041;-50
2023/05/24 07:48:58;;;;;;;6.97;3.63;;;23.40;99.90;;;;;;5012189;28;20037;-50
2023/05/24 07:51:25;;;;;;;5.00;4.18;;;23.20;99.90;;;;;;5029847;28;20037;-50
2023/05/24 07:53:51;;;;;;;7.13;4.65;;;23.30;99.90;;;;;;5031314;28;20052;-50
2023/05/24 07:56:17;;;;;;;3.38;2.33;;;;;;;;;;5028908;28;20065;-51
2023/05/24 07:58:45;;;;;;;6.82;4.60;;;;;;;;;;5028910;28;20388;-53
2023/05/24 08:01:14;;;;;;;6.30;4.65;;;;;;;;;;5027677;28;20463;-51
2023/05/24 08:03:40;;;;;;;6.97;4.63;;;23.60;99.90;;;;;;5029885;28;20029;-51
2023/05/24 08:06:06;;;;;;;5.07;3.72;;;;;;;;;;5027141;28;20421;-50
2023/05/24 08:08:32;;;;;;;6.28;4.32;;;23.60;99.90;;;;;;5034403;28;20029;-52
2023/05/24 08:10:57;;;;;;;6.65;4.63;;;23.80;99.90;;;;;;5034913;28;20072;-51
2023/05/24 08:13:23;;;;;;;5.93;4.25;;;;;;;;;;5010456;28;20041;-51
2023/05/24 08:15:49;;;;;;;5.38;4.22;;;24.20;99.90;;;;;;5033811;28;20041;-51
2023/05/24 08:18:16;;;;;;;8.48;4.80;;;;;;;;;;5014930;28;20604;-51
2023/05/24 08:20:42;;;;;;;4.40;3.47;;;;;;;;;;5034456;28;20504;-51
2023/05/24 08:23:08;;;;;;;7.70;4.15;;;;;;;;;;5034630;28;20096;-51
2023/05/24 08:25:34;;;;;;;5.90;4.18;;;;;;;;;;5034456;28;20120;-51
2023/05/24 08:28:00;;;;;;;6.82;3.65;;;;;;;;;;5034249;28;20025;-51
2023/05/24 08:30:26;;;;;;;3.95;3.05;;;;;;;;;;5034022;28;20117;-51
2023/05/24 08:32:52;;;;;;;4.47;2.45;;;;;;;;;;5034505;28;21725;-50
2023/05/24 08:35:19;;;;;;;3.13;2.17;;;;;;;;;;5014811;28;20497;-51
2023/05/24 08:37:46;;;;;;;6.82;3.35;;;;;;;;;;5011613;28;20543;-50
2023/05/24 08:40:12;;;;;;;5.68;3.65;;;;;;;;;;5034021;28;20033;-51
2023/05/24 08:42:39;;;;;;;9.15;3.70;;;;;;;;;;5030117;28;20034;-50
2023/05/24 08:45:10;;;;;;;5.20;3.95;;;;;;;;;;5031281;28;20499;-51
2023/05/24 08:47:37;;;;;;;5.47;2.55;;;;;;;;;;4995335;28;20052;-52
2023/05/24 08:50:05;;;;;;;5.68;3.70;;;;;;;;;;5002629;28;20089;-52
2023/05/24 08:52:31;;;;;;;5.05;3.80;;;;;;;;;;4978636;28;20466;-52
2023/05/24 08:55:01;;;;;;;5.13;3.65;;;;;;;;;;5008630;28;20478;-52
2023/05/24 08:57:29;;;;;;;5.18;3.47;;;;;;;;;;5010362;28;20138;-51
2023/05/24 08:59:56;;;;;;;5.28;3.55;;;;;;;;;;5006890;28;20465;-52
2023/05/24 09:02:22;;;;;;;3.78;3.08;;;;;;;;;;5006384;28;20045;-52
2023/05/24 09:04:49;;;;;;;4.18;3.17;;;;;;;;;;5011464;28;20026;-52
2023/05/24 09:07:19;;;;;;;4.35;3.08;;;;;;;;;;5004638;28;20121;-55
2023/05/24 09:09:50;;;;;;;4.45;3.42;;;;;;;;;;5007338;28;20416;-51
2023/05/24 09:12:17;;;;;;;7.10;3.30;;;;;;;;;;4975190;28;20034;-52
2023/05/24 09:14:47;;;;;;;9.80;3.15;;;;;;;;;;5011707;28;20398;-52
2023/05/24 09:17:16;;;;;;;6.18;4.35;;;;;;;;;;4977999;28;20041;-52
2023/05/24 09:19:46;;;;;;;4.63;3.58;;;;;;;;;;5031861;28;20125;-52
2023/05/24 09:22:19;;;;;;;4.13;2.97;;;;;;;;;;5033800;28;20036;-53
2023/05/24 09:24:47;;;;;;;5.63;3.38;;;;;;;;;;5031846;28;20041;-51
2023/05/24 09:27:17;;;;;;;5.05;3.20;;;;;;;;;;5033440;28;20048;-52
2023/05/24 09:29:53;;;;;;;4.13;3.20;;;;;;;;;;5032312;28;20419;-55
2023/05/24 09:32:22;;;;;;;6.68;4.07;;;;;;;;;;5030947;28;20381;-52
2023/05/24 09:34:48;;;;;;;6.22;3.13;;;;;;;;;;5027398;28;20362;-49
2023/05/24 09:37:15;;;;;;;5.10;3.42;;;;;;;;;;5033699;28;20033;-49
2023/05/24 09:39:41;;;;;;;5.00;3.38;;;;;;;;;;5026663;28;20048;-50
2023/05/24 09:42:07;;;;;;;5.13;3.40;;;;;;;;;;5033066;28;20025;-52
2023/05/24 09:44:33;;;;;;;6.00;3.58;;;;;;;;;;5033464;28;20484;-51
2023/05/24 09:47:07;;;;;;;4.90;3.50;;;;;;;;;;5047048;28;20033;-51
2023/05/24 09:49:36;;;;;;;4.20;3.28;;;23.80;99.90;;;;;;5030626;28;20076;-51
2023/05/24 09:52:02;;;;;;;4.63;3.20;;;23.90;99.90;;;;;;5033185;28;20029;-50
2023/05/24 09:54:28;;;;;;;4.43;3.10;;;23.80;99.90;;;;;;4959467;28;20052;-53
2023/05/24 09:56:53;;;;;;;4.38;3.33;;;23.80;99.90;;;;;;5014589;28;20132;-51
2023/05/24 09:59:20;;;;;;;4.00;3.00;;;;;;;;;;5032268;28;20108;-53
2023/05/24 10:01:46;;;;;;;5.35;2.83;;;;;;;;;;5013385;28;20037;-51
2023/05/24 10:04:12;;;;;;;3.75;2.55;;;;;;;;;;5031382;28;20040;-52
2023/05/24 10:06:41;;;;;;;3.67;2.75;;;;;;;;;;5008690;28;20049;-51
2023/05/24 10:09:08;;;;;;;4.18;2.58;;;;;;;;;;5033276;28;20033;-50
2023/05/24 10:11:38;;;;;;;6.28;2.78;;;;;;;;;;5032055;28;20052;-51
2023/05/24 10:14:06;;;;;;;8.25;5.18;;;;;;;;;;5032844;28;20107;-51
2023/05/24 10:16:32;;;;;;;6.55;3.35;;;;;;;;;;5013860;28;20057;-52
2023/05/24 10:18:58;;;;;;;8.05;4.72;;;;;;;;;;5032661;28;20703;-52
2023/05/24 10:21:28;;;;;;;5.03;3.40;;;;;;;;;;5031724;28;20192;-48
2023/05/24 10:23:58;;;;;;;4.93;3.10;;;;;;;;;;5027199;28;20362;-53
2023/05/24 10:26:25;;;;;;;5.00;3.40;;;;;;;;;;5031598;28;20503;-50
2023/05/24 10:28:55;;;;;;;9.27;3.92;;;;;;;;;;5030621;28;20082;-51
2023/05/24 10:31:35;;;;;;;3.28;2.78;;;;;;;;;;5032456;28;20026;-49
2023/05/24 10:34:03;;;;;;;5.90;3.10;;;;;;;;;;5032243;28;20112;-49
2023/05/24 10:36:29;;;;;;;4.05;3.05;;;25.70;99.90;;;;;;5032172;28;20489;-48
2023/05/24 10:38:56;;;;;;;6.10;2.80;;;;;;;;;;5028391;28;20037;-48
2023/05/24 10:41:26;;;;;;;3.72;3.05;;;26.30;99.90;;;;;;5032162;28;20389;-50
2023/05/24 10:43:52;;;;;;;3.30;2.08;;;26.30;99.90;;;;;;5032729;28;20373;-48
2023/05/24 10:46:21;;;;;;;4.30;2.40;;;;;;;;;;5032012;28;20029;-49
2023/05/24 10:49:13;;;;;;;2.97;2.25;;;;;;;;;;5032450;28;20489;-49
2023/05/24 10:51:40;;;;;;;3.00;2.38;;;;;;;;;;5029606;28;20037;-50
2023/05/24 10:54:13;;;;;;;4.15;2.97;;;;;;;;;;5013548;28;20041;-49
2023/05/24 10:56:40;;;;;;;3.47;2.10;;;;;;;;;;5026578;28;20049;-49
2023/05/24 10:59:07;;;;;;;3.50;2.60;;;26.30;99.90;;;;;;5032077;28;20377;-49
2023/05/24 11:01:33;;;;;;;3.25;2.20;;;26.40;99.90;;;;;;5031902;28;20045;-49
2023/05/24 11:04:10;;;;;;;5.10;2.40;;;;;;;;;;5031960;28;20034;-49
2023/05/24 11:06:47;;;;;;;2.65;1.88;;;26.80;99.90;;;;;;5031785;28;20059;-48
2023/05/24 11:09:13;;;;;;;3.65;2.15;;;26.40;99.90;;;;;;5028908;28;20029;-48
2023/05/24 11:11:44;;;;;;;3.25;2.15;;;27.00;99.90;;;;;;5030146;28;20099;-48
2023/05/24 11:14:10;;;;;;;6.18;2.60;;;;;;;;;;5031489;28;20033;-50
2023/05/24 11:16:38;;;;;;;3.03;1.85;;;26.80;99.90;;;;;;5013236;28;20092;-48
2023/05/24 11:19:11;;;;;;;3.10;2.50;;;;;;;;;;5030999;28;20036;-50
2023/05/24 11:21:40;;;;;;;5.30;2.20;;;27.60;99.90;;;;;;5032493;28;20075;-49
2023/05/24 11:24:07;;;;;;;3.35;2.40;;;27.50;99.90;;;;;;5031538;28;20040;-48
2023/05/24 11:26:32;;;;;;;4.15;2.30;;;27.40;99.90;;;;;;5031878;28;20034;-49
2023/05/24 11:29:00;;;;;;;3.08;2.15;;;27.20;99.90;;;;;;5014083;28;20393;-49
2023/05/24 11:31:29;;;;;;;3.03;2.20;;;26.60;99.90;;;;;;5032060;28;20079;-49
2023/05/24 11:33:54;;;;;;;3.25;2.55;;;26.40;99.90;;;;;;5032083;28;20034;-48
2023/05/24 11:36:20;;;;;;;3.88;2.25;;;26.60;99.90;;;;;;5032820;28;20468;-48
2023/05/24 11:38:46;;;;;;;5.70;3.25;;;;;;;;;;5030426;28;20041;-50
2023/05/24 11:41:12;;;;;;;3.05;2.42;;;27.50;99.90;;;;;;5034956;28;20025;-50
2023/05/24 11:43:40;;;;;;;4.43;2.70;;;27.90;99.90;;;;;;5017902;28;20034;-48
2023/05/24 11:46:06;;;;;;;5.32;2.67;;;27.60;99.90;;;;;;5035723;28;20170;-49
2023/05/24 11:48:32;;;;;;;4.82;2.80;;;28.00;99.90;;;;;;5036278;28;20039;-49
2023/05/24 11:50:58;;;;;;;2.58;2.33;;;27.80;99.90;;;;;;5035474;28;20380;-48
2023/05/24 11:53:24;;;;;;;4.25;3.08;;;27.10;99.90;;;;;;4998852;28;20103;-49
2023/05/24 11:55:53;;;;;;;6.00;3.25;;;27.00;99.90;;;;;;5035264;28;20033;-48
2023/05/24 11:58:22;;;;;;;4.35;3.40;;;27.20;99.90;;;;;;5034981;28;20485;-50
2023/05/24 12:00:49;;;;;;;4.15;2.65;;;28.00;99.90;;;;;;5035434;28;20033;-49
2023/05/24 12:03:15;;;;;;;4.90;2.90;;;28.00;99.90;;;;;;5035065;28;20036;-48
2023/05/24 12:05:42;;;;;;;6.15;3.80;;;27.60;99.90;;;;;;5033079;28;20037;-49
2023/05/24 12:08:09;;;;;;;4.65;3.13;;;;;;;;;;5035298;28;20095;-48
2023/05/24 12:10:36;;;;;;;3.63;2.92;;;;;;;;;;5016809;28;20040;-50
2023/05/24 12:13:02;;;;;;;4.15;2.40;;;27.00;99.90;;;;;;5033559;28;20034;-49
2023/05/24 12:15:29;;;;;;;4.65;2.97;;;;;;;;;;5034700;28;20034;-49
2023/05/24 12:17:55;;;;;;;4.35;3.03;;;28.00;99.90;;;;;;5035360;28;20143;-48
2023/05/24 12:20:22;;;;;;;4.07;2.20;;;28.10;99.90;;;;;;5033915;28;20416;-49
2023/05/24 12:22:50;;;;;;;6.18;2.88;;;;;;;;;;5034306;28;20025;-48
2023/05/24 12:25:20;;;;;;;3.70;2.53;;;;;;;;;;5035574;28;20065;-48
2023/05/24 12:27:55;;;;;;;3.90;3.28;;;26.80;99.90;;;;;;5035065;28;20037;-47
2023/05/24 12:30:22;;;;;;;3.88;2.58;;;26.90;99.90;;;;;;5034035;28;20042;-48
2023/05/24 12:32:48;;;;;;;9.63;3.75;;;26.50;99.90;;;;;;5034854;28;20099;-49
2023/05/24 12:35:17;;;;;;;5.10;2.83;;;26.60;99.90;;;;;;5014137;28;20045;-50
2023/05/24 12:37:43;;;;;;;7.28;3.20;;;26.90;99.90;;;;;;5034483;28;20049;-50
2023/05/24 12:40:19;;;;;;;5.30;3.40;;;27.60;99.90;;;;;;5034720;28;20037;-48
2023/05/24 12:42:48;;;;;;;4.32;2.80;;;;;;;;;;5027401;28;20029;-49
2023/05/24 12:45:14;;;;;;;7.93;3.65;;;28.10;99.90;;;;;;5034645;28;20155;-50
2023/05/24 12:47:41;;;;;;;5.18;3.15;;;28.40;99.90;;;;;;5034766;28;20413;-48
2023/05/24 12:50:07;;;;;;;5.10;3.47;;;27.80;99.90;;;;;;5033235;28;20087;-50
2023/05/24 12:52:32;;;;;;;5.57;3.10;;;27.90;99.90;;;;;;4966852;28;20038;-48
2023/05/24 12:54:58;;;;;;;6.75;3.55;;;28.10;99.90;;;;;;5015373;28;20041;-47
2023/05/24 12:57:24;;;;;;;4.55;3.58;;;;;;;;;;5034668;28;20021;-48
2023/05/24 12:59:50;;;;;;;4.88;2.97;;;28.90;99.90;;;;;;5015490;28;20045;-50
2023/05/24 13:02:16;;;;;;;4.85;3.17;;;28.70;99.90;;;;;;5033920;28;20477;-48
2023/05/24 13:04:42;;;;;;;4.97;3.38;;;28.90;99.90;;;;;;5033794;28;20095;-48
2023/05/24 13:07:08;;;;;;;5.22;3.25;;;;;;;;;;5016370;28;20079;-49
2023/05/24 13:09:34;;;;;;;4.43;3.42;;;;;;;;;;5033930;28;20037;-47
2023/05/24 13:12:00;;;;;;;6.38;3.33;;;;;;;;;;5034023;28;20485;-50
2023/05/24 13:14:26;;;;;;;5.35;3.58;;;;;;;;;;5033684;28;20033;-48
2023/05/24 13:16:52;;;;;;;4.90;3.00;;;;;;;;;;5031672;28;20045;-49